createdAt,value
2023-07-31T00:00:18.085Z,100.00
2023-07-31T00:02:19.891Z,100.00
2023-07-31T00:04:21.370Z,100.00
2023-07-31T00:06:22.794Z,100.00
2023-07-31T00:08:24.539Z,100.00
2023-07-31T00:10:26.000Z,100.00
2023-07-31T00:12:27.478Z,100.00
2023-07-31T00:14:29.082Z,100.00
2023-07-31T00:16:30.627Z,100.00
2023-07-31T00:18:32.113Z,100.00
2023-07-31T00:20:33.922Z,100.00
2023-07-31T00:22:35.354Z,100.00
2023-07-31T00:24:36.815Z,100.00
2023-07-31T00:26:38.818Z,100.00
2023-07-31T00:28:40.572Z,100.00
2023-07-31T00:30:42.019Z,100.00
2023-07-31T00:32:43.727Z,100.00
2023-07-31T00:34:45.191Z,100.00
2023-07-31T00:36:46.624Z,100.00
2023-07-31T00:38:48.577Z,100.00
2023-07-31T00:40:50.116Z,100.00
2023-07-31T00:42:51.569Z,100.00
2023-07-31T00:44:53.180Z,100.00
2023-07-31T00:46:55.408Z,100.00
2023-07-31T00:48:57.780Z,100.00
2023-07-31T00:50:59.488Z,100.00
2023-07-31T00:53:01.485Z,100.00
2023-07-31T00:55:02.984Z,100.00
2023-07-31T00:57:04.801Z,100.00
2023-07-31T00:59:06.227Z,100.00
2023-07-31T01:01:07.711Z,100.00
2023-07-31T01:03:09.495Z,100.00
2023-07-31T01:05:11.117Z,100.00
2023-07-31T01:07:21.346Z,100.00
2023-07-31T01:09:45.899Z,100.00
2023-07-31T01:12:01.193Z,100.00
2023-07-31T01:14:02.932Z,100.00
2023-07-31T01:16:04.591Z,100.00
2023-07-31T01:18:06.030Z,100.00
2023-07-31T01:20:12.997Z,100.00
2023-07-31T01:22:34.088Z,100.00
2023-07-31T01:24:49.291Z,100.00
2023-07-31T01:26:58.470Z,100.00
2023-07-31T01:29:09.651Z,100.00
2023-07-31T01:31:16.163Z,100.00
2023-07-31T01:33:18.076Z,100.00
2023-07-31T01:35:20.082Z,100.00
2023-07-31T01:37:21.559Z,100.00
2023-07-31T01:39:23.008Z,100.00
2023-07-31T01:41:24.599Z,100.00
2023-07-31T01:43:26.123Z,100.00
2023-07-31T01:45:27.804Z,100.00
2023-07-31T01:47:29.350Z,100.00
2023-07-31T01:49:30.823Z,100.00
2023-07-31T01:51:32.321Z,100.00
2023-07-31T01:53:33.933Z,100.00
2023-07-31T01:55:35.569Z,100.00
2023-07-31T01:57:37.883Z,100.00
2023-07-31T01:59:39.461Z,100.00
2023-07-31T02:01:41.114Z,100.00
2023-07-31T02:03:42.662Z,100.00
2023-07-31T02:05:49.001Z,100.00
2023-07-31T02:07:52.695Z,100.00
2023-07-31T02:09:54.038Z,100.00
2023-07-31T02:11:55.689Z,100.00
2023-07-31T02:13:57.389Z,100.00
2023-07-31T02:15:58.877Z,100.00
2023-07-31T02:18:00.670Z,100.00
2023-07-31T02:20:02.742Z,100.00
2023-07-31T02:22:04.560Z,100.00
2023-07-31T02:24:06.023Z,100.00
2023-07-31T02:26:07.459Z,100.00
2023-07-31T02:28:08.904Z,100.00
2023-07-31T02:30:10.958Z,100.00
2023-07-31T02:32:12.554Z,100.00
2023-07-31T02:34:14.565Z,100.00
2023-07-31T02:36:15.992Z,100.00
2023-07-31T02:38:17.576Z,100.00
2023-07-31T02:40:19.006Z,100.00
2023-07-31T02:42:20.511Z,100.00
2023-07-31T02:44:22.993Z,100.00
2023-07-31T02:46:24.459Z,100.00
2023-07-31T02:48:26.443Z,100.00
2023-07-31T02:50:28.030Z,100.00
2023-07-31T02:52:29.510Z,100.00
2023-07-31T02:54:31.026Z,100.00
2023-07-31T02:56:32.727Z,100.00
2023-07-31T02:58:34.183Z,100.00
2023-07-31T03:00:35.769Z,100.00
2023-07-31T03:02:37.630Z,100.00
2023-07-31T03:04:39.139Z,100.00
2023-07-31T03:06:40.933Z,100.00
2023-07-31T03:08:42.792Z,100.00
2023-07-31T03:10:44.206Z,100.00
2023-07-31T03:12:48.393Z,100.00
2023-07-31T03:14:49.891Z,100.00
2023-07-31T03:16:51.320Z,100.00
2023-07-31T03:18:52.848Z,100.00
2023-07-31T03:20:54.977Z,100.00
2023-07-31T03:22:56.397Z,100.00
2023-07-31T03:24:58.055Z,100.00
2023-07-31T03:26:59.655Z,100.00
2023-07-31T03:29:01.108Z,100.00
2023-07-31T03:31:02.886Z,100.00
2023-07-31T03:33:04.546Z,100.00
2023-07-31T03:35:06.477Z,100.00
2023-07-31T03:37:08.092Z,100.00
2023-07-31T03:39:09.588Z,100.00
2023-07-31T03:41:11.030Z,100.00
2023-07-31T03:43:13.127Z,100.00
2023-07-31T03:45:14.908Z,100.00
2023-07-31T03:47:16.514Z,100.00
2023-07-31T03:49:17.997Z,100.00
2023-07-31T03:51:19.548Z,100.00
2023-07-31T03:53:21.083Z,100.00
2023-07-31T03:55:22.615Z,100.00
2023-07-31T03:57:24.233Z,100.00
2023-07-31T03:59:25.674Z,100.00
2023-07-31T04:01:27.695Z,100.00
2023-07-31T04:03:29.370Z,100.00
2023-07-31T04:05:32.620Z,100.00
2023-07-31T04:07:34.359Z,100.00
2023-07-31T04:09:35.981Z,100.00
2023-07-31T04:11:37.416Z,100.00
2023-07-31T04:13:39.278Z,100.00
2023-07-31T04:15:40.812Z,100.00
2023-07-31T04:17:42.313Z,100.00
2023-07-31T04:19:43.836Z,100.00
2023-07-31T04:21:45.581Z,100.00
2023-07-31T04:23:47.046Z,100.00
2023-07-31T04:25:48.661Z,100.00
2023-07-31T04:27:50.402Z,100.00
2023-07-31T04:29:51.841Z,100.00
2023-07-31T04:31:53.371Z,100.00
2023-07-31T04:33:54.824Z,100.00
2023-07-31T04:35:56.262Z,100.00
2023-07-31T04:37:57.944Z,100.00
2023-07-31T04:39:59.548Z,100.00
2023-07-31T04:42:00.981Z,100.00
2023-07-31T04:44:02.847Z,100.00
2023-07-31T04:46:04.501Z,100.00
2023-07-31T04:48:06.087Z,100.00
2023-07-31T04:50:08.212Z,100.00
2023-07-31T04:52:09.746Z,100.00
2023-07-31T04:54:11.217Z,100.00
2023-07-31T04:56:12.844Z,100.00
2023-07-31T04:58:14.356Z,100.00
2023-07-31T05:00:15.994Z,100.00
2023-07-31T05:02:17.690Z,100.00
2023-07-31T05:04:19.732Z,100.00
2023-07-31T05:06:21.178Z,100.00
2023-07-31T05:08:22.997Z,100.00
2023-07-31T05:10:24.634Z,100.00
2023-07-31T05:12:26.250Z,100.00
2023-07-31T05:14:28.646Z,100.00
2023-07-31T05:16:30.323Z,100.00
2023-07-31T05:18:32.378Z,100.00
2023-07-31T05:20:34.045Z,100.00
2023-07-31T05:22:35.640Z,100.00
2023-07-31T05:24:37.064Z,100.00
2023-07-31T05:26:38.724Z,100.00
2023-07-31T05:28:41.717Z,100.00
2023-07-31T05:30:43.189Z,100.00
2023-07-31T05:32:45.244Z,100.00
2023-07-31T05:34:46.878Z,100.00
2023-07-31T05:36:48.325Z,100.00
2023-07-31T05:38:50.411Z,100.00
2023-07-31T05:40:52.021Z,100.00
2023-07-31T05:42:53.484Z,100.00
2023-07-31T05:44:55.321Z,100.00
2023-07-31T05:46:56.858Z,100.00
2023-07-31T05:48:58.293Z,100.00
2023-07-31T05:50:59.835Z,100.00
2023-07-31T05:53:01.376Z,100.00
2023-07-31T05:55:03.265Z,100.00
2023-07-31T05:57:05.176Z,100.00
2023-07-31T05:59:06.741Z,100.00
2023-07-31T06:01:08.225Z,100.00
2023-07-31T06:03:10.229Z,100.00
2023-07-31T06:05:12.218Z,100.00
2023-07-31T06:07:13.678Z,100.00
2023-07-31T06:09:15.292Z,100.00
2023-07-31T06:11:16.938Z,100.00
2023-07-31T06:13:18.402Z,100.00
2023-07-31T06:15:21.016Z,100.00
2023-07-31T06:17:22.646Z,100.00
2023-07-31T06:19:24.138Z,100.00
2023-07-31T06:21:25.914Z,100.00
2023-07-31T06:23:27.663Z,100.00
2023-07-31T06:25:29.204Z,100.00
2023-07-31T06:27:30.765Z,100.00
2023-07-31T06:29:32.580Z,100.00
2023-07-31T06:31:34.102Z,100.00
2023-07-31T06:33:35.860Z,100.00
2023-07-31T06:35:37.456Z,100.00
2023-07-31T06:37:38.922Z,100.00
2023-07-31T06:39:40.837Z,100.00
2023-07-31T06:41:43.557Z,100.00
2023-07-31T06:43:44.984Z,100.00
2023-07-31T06:45:46.615Z,100.00
2023-07-31T06:47:48.369Z,100.00
2023-07-31T06:49:49.807Z,100.00
2023-07-31T06:51:51.448Z,100.00
2023-07-31T06:53:52.960Z,100.00
2023-07-31T06:55:54.410Z,100.00
2023-07-31T06:57:56.779Z,100.00
2023-07-31T06:59:58.304Z,100.00
2023-07-31T07:01:59.749Z,100.00
2023-07-31T07:04:01.430Z,100.00
2023-07-31T07:06:03.102Z,100.00
2023-07-31T07:08:04.752Z,100.00
2023-07-31T07:10:06.852Z,100.00
2023-07-31T07:12:08.973Z,100.00
2023-07-31T07:14:10.442Z,100.00
2023-07-31T07:16:12.160Z,100.00
2023-07-31T07:18:13.757Z,100.00
2023-07-31T07:20:15.204Z,100.00
2023-07-31T07:22:16.866Z,97.64
2023-07-31T07:24:18.438Z,97.95
2023-07-31T07:26:20.949Z,94.82
2023-07-31T07:28:22.599Z,95.88
2023-07-31T07:30:25.609Z,100.00
2023-07-31T07:32:27.147Z,94.98
2023-07-31T07:34:29.483Z,93.19
2023-07-31T07:36:30.996Z,95.95
2023-07-31T07:38:32.432Z,88.28
2023-07-31T07:40:34.627Z,85.68
2023-07-31T07:42:36.152Z,85.25
2023-07-31T07:44:37.586Z,83.74
2023-07-31T07:46:39.656Z,84.00
2023-07-31T07:48:41.320Z,82.12
2023-07-31T07:50:42.780Z,81.13
2023-07-31T07:52:44.520Z,84.80
2023-07-31T07:54:45.960Z,88.28
2023-07-31T07:56:47.396Z,87.56
2023-07-31T07:58:52.463Z,90.76
2023-07-31T08:00:53.982Z,87.18
2023-07-31T08:02:55.583Z,80.70
2023-07-31T08:04:57.392Z,81.97
2023-07-31T08:06:58.829Z,81.17
2023-07-31T08:09:00.982Z,83.46
2023-07-31T08:11:03.137Z,81.24
2023-07-31T08:13:04.591Z,81.06
2023-07-31T08:15:06.873Z,78.71
2023-07-31T08:17:08.623Z,77.69
2023-07-31T08:19:10.208Z,80.60
2023-07-31T08:21:11.886Z,79.86
2023-07-31T08:23:13.785Z,78.58
2023-07-31T08:25:15.323Z,78.97
2023-07-31T08:27:16.758Z,79.78
2023-07-31T08:29:18.610Z,76.77
2023-07-31T08:31:20.428Z,77.83
2023-07-31T08:33:21.948Z,77.58
2023-07-31T08:35:25.329Z,76.59
2023-07-31T08:37:26.772Z,79.25
2023-07-31T08:39:28.219Z,78.04
2023-07-31T08:41:30.059Z,78.68
2023-07-31T08:43:32.047Z,79.30
2023-07-31T08:45:33.675Z,77.30
2023-07-31T08:47:36.175Z,76.66
2023-07-31T08:49:39.540Z,77.52
2023-07-31T08:53:43.741Z,77.84
2023-07-31T08:55:45.946Z,75.86
2023-07-31T08:57:48.110Z,75.88
2023-07-31T08:59:50.559Z,77.00
2023-07-31T09:01:55.864Z,75.24
2023-07-31T09:04:00.660Z,75.07
2023-07-31T09:06:03.749Z,74.25
2023-07-31T09:08:06.111Z,76.02
2023-07-31T09:10:07.911Z,75.59
2023-07-31T09:12:09.755Z,74.15
2023-07-31T09:14:11.718Z,76.34
2023-07-31T09:16:13.411Z,75.66
2023-07-31T09:18:15.080Z,75.89
2023-07-31T09:20:21.597Z,71.88
2023-07-31T09:22:36.817Z,73.61
2023-07-31T09:24:38.717Z,71.71
2023-07-31T09:26:40.640Z,71.17
2023-07-31T09:28:42.461Z,68.79
2023-07-31T09:30:49.205Z,67.31
2023-07-31T09:32:52.300Z,70.17
2023-07-31T09:34:53.767Z,68.94
2023-07-31T09:36:55.399Z,69.16
2023-07-31T09:38:56.972Z,72.02
2023-07-31T09:40:59.816Z,72.48
2023-07-31T09:43:06.405Z,70.50
2023-07-31T09:45:09.305Z,70.02
2023-07-31T09:47:26.634Z,68.89
2023-07-31T09:49:30.150Z,69.27
2023-07-31T09:51:31.626Z,71.71
2023-07-31T09:53:33.056Z,69.64
2023-07-31T09:55:35.374Z,71.52
2023-07-31T09:57:42.134Z,68.80
2023-07-31T09:59:43.675Z,66.70
2023-07-31T10:01:46.918Z,68.23
2023-07-31T10:03:48.886Z,68.03
2023-07-31T10:05:52.136Z,69.87
2023-07-31T10:07:56.496Z,68.71
2023-07-31T10:10:04.109Z,66.31
2023-07-31T10:12:12.160Z,67.44
2023-07-31T10:14:14.712Z,66.72
2023-07-31T10:16:17.053Z,67.35
2023-07-31T10:18:19.669Z,66.30
2023-07-31T10:20:22.119Z,67.09
2023-07-31T10:22:24.689Z,65.60
2023-07-31T10:24:26.780Z,67.54
2023-07-31T10:26:28.444Z,65.05
2023-07-31T10:28:30.534Z,64.24
2023-07-31T10:30:34.714Z,67.74
2023-07-31T10:32:37.151Z,64.16
2023-07-31T10:34:41.343Z,65.87
2023-07-31T10:36:42.807Z,66.08
2023-07-31T10:38:44.578Z,65.62
2023-07-31T10:40:46.140Z,63.65
2023-07-31T10:42:49.802Z,64.69
2023-07-31T10:44:51.295Z,65.21
2023-07-31T10:46:56.252Z,64.46
2023-07-31T10:49:02.839Z,63.44
2023-07-31T10:51:09.653Z,62.80
2023-07-31T10:53:24.367Z,65.78
2023-07-31T10:55:43.263Z,66.26
2023-07-31T10:57:48.224Z,64.47
2023-07-31T10:59:50.786Z,64.34
2023-07-31T11:01:57.069Z,63.37
2023-07-31T11:03:58.904Z,64.62
2023-07-31T11:06:02.793Z,62.87
2023-07-31T11:08:14.883Z,65.24
2023-07-31T11:10:20.617Z,64.20
2023-07-31T11:12:22.352Z,65.15
2023-07-31T11:14:24.218Z,63.64
2023-07-31T11:16:26.759Z,63.37
2023-07-31T11:18:28.578Z,65.43
2023-07-31T11:20:33.855Z,65.50
2023-07-31T11:22:36.621Z,64.88
2023-07-31T11:24:38.130Z,66.44
2023-07-31T11:26:39.915Z,62.71
2023-07-31T11:28:42.026Z,66.59
2023-07-31T11:30:45.068Z,62.53
2023-07-31T11:32:46.883Z,59.81
2023-07-31T11:34:55.649Z,62.12
2023-07-31T11:36:57.746Z,62.56
2023-07-31T11:39:09.333Z,61.95
2023-07-31T11:41:10.927Z,63.82
2023-07-31T11:43:12.421Z,61.37
2023-07-31T11:45:14.013Z,60.38
2023-07-31T11:47:17.312Z,61.01
2023-07-31T11:49:18.770Z,64.95
2023-07-31T11:51:22.265Z,62.52
2023-07-31T11:53:28.037Z,60.83
2023-07-31T11:55:29.992Z,63.05
2023-07-31T11:57:31.822Z,63.17
2023-07-31T11:59:33.834Z,61.77
2023-07-31T12:01:35.423Z,64.81
2023-07-31T12:03:37.323Z,64.18
2023-07-31T12:05:39.281Z,63.71
2023-07-31T12:07:51.853Z,63.11
2023-07-31T12:09:57.179Z,62.31
2023-07-31T12:11:58.812Z,63.90
2023-07-31T12:14:00.260Z,66.03
2023-07-31T12:16:03.381Z,62.29
2023-07-31T12:18:06.951Z,62.60
2023-07-31T12:20:09.677Z,65.17
2023-07-31T12:22:15.826Z,63.30
2023-07-31T12:24:19.897Z,63.78
2023-07-31T12:26:21.406Z,65.05
2023-07-31T12:28:26.006Z,63.56
2023-07-31T12:30:33.413Z,63.73
2023-07-31T12:32:34.886Z,65.23
2023-07-31T12:34:43.792Z,64.32
2023-07-31T12:36:45.573Z,66.41
2023-07-31T12:38:47.096Z,65.95
2023-07-31T12:40:48.553Z,66.88
2023-07-31T12:42:50.250Z,68.28
2023-07-31T12:44:51.688Z,69.54
2023-07-31T12:46:53.133Z,67.60
2023-07-31T12:48:55.366Z,70.55
2023-07-31T12:50:56.908Z,69.67
2023-07-31T12:52:58.987Z,67.41
2023-07-31T12:55:00.886Z,68.77
2023-07-31T12:57:02.328Z,68.59
2023-07-31T12:59:03.796Z,67.86
2023-07-31T13:01:05.715Z,69.12
2023-07-31T13:03:07.293Z,70.75
2023-07-31T13:05:09.646Z,69.94
2023-07-31T13:07:11.422Z,70.20
2023-07-31T13:09:13.040Z,71.14
2023-07-31T13:11:14.520Z,71.73
2023-07-31T13:13:16.269Z,72.17
2023-07-31T13:15:17.793Z,72.72
2023-07-31T13:17:19.477Z,72.65
2023-07-31T13:19:21.091Z,72.20
2023-07-31T13:21:22.519Z,70.24
2023-07-31T13:23:23.956Z,71.61
2023-07-31T13:25:25.715Z,71.54
2023-07-31T13:27:27.165Z,71.05
2023-07-31T13:29:28.606Z,70.26
2023-07-31T13:31:30.450Z,69.12
2023-07-31T13:33:38.001Z,67.99
2023-07-31T13:35:40.869Z,70.01
2023-07-31T13:37:42.775Z,70.00
2023-07-31T13:39:44.473Z,71.25
2023-07-31T13:41:45.961Z,72.36
2023-07-31T13:43:47.754Z,70.80
2023-07-31T13:45:49.197Z,71.58
2023-07-31T13:47:51.349Z,73.05
2023-07-31T13:49:53.021Z,74.22
2023-07-31T13:51:54.454Z,74.72
2023-07-31T13:53:55.886Z,74.54
2023-07-31T13:55:57.503Z,75.48
2023-07-31T13:57:58.958Z,73.90
2023-07-31T14:00:00.429Z,74.58
2023-07-31T14:02:03.933Z,74.22
2023-07-31T14:04:05.459Z,75.00
2023-07-31T14:06:07.127Z,74.94
2023-07-31T14:08:08.738Z,75.23
2023-07-31T14:10:10.572Z,74.35
2023-07-31T14:12:12.061Z,76.75
2023-07-31T14:14:13.666Z,75.32
2023-07-31T14:16:15.258Z,74.08
2023-07-31T14:18:16.949Z,75.79
2023-07-31T14:20:19.094Z,74.58
2023-07-31T14:22:31.208Z,73.40
2023-07-31T14:24:33.061Z,73.54
2023-07-31T14:26:34.574Z,73.45
2023-07-31T14:28:36.150Z,71.84
2023-07-31T14:30:37.696Z,74.72
2023-07-31T14:32:39.217Z,75.03
2023-07-31T14:34:40.905Z,76.18
2023-07-31T14:36:42.515Z,76.32
2023-07-31T14:38:44.280Z,73.49
2023-07-31T14:40:45.926Z,75.19
2023-07-31T14:42:47.444Z,75.19
2023-07-31T14:44:48.947Z,76.36
2023-07-31T14:46:50.521Z,76.67
2023-07-31T14:48:51.972Z,77.99
2023-07-31T14:50:53.650Z,78.18
2023-07-31T14:52:55.397Z,77.49
2023-07-31T14:54:56.841Z,76.25
2023-07-31T14:56:58.364Z,77.10
2023-07-31T14:59:00.191Z,73.77
2023-07-31T15:01:01.654Z,75.75
2023-07-31T15:03:04.101Z,76.38
2023-07-31T15:05:06.373Z,74.60
2023-07-31T15:07:07.809Z,74.87
2023-07-31T15:09:09.486Z,74.73
2023-07-31T15:11:11.135Z,76.32
2023-07-31T15:13:12.602Z,77.46
2023-07-31T15:15:16.139Z,76.17
2023-07-31T15:17:17.609Z,75.14
2023-07-31T15:19:19.026Z,75.51
2023-07-31T15:21:20.573Z,75.91
2023-07-31T15:23:22.057Z,77.54
2023-07-31T15:25:23.506Z,77.67
2023-07-31T15:27:25.147Z,78.27
2023-07-31T15:29:26.746Z,77.87
2023-07-31T15:31:28.605Z,78.55
2023-07-31T15:33:30.195Z,79.30
2023-07-31T15:35:31.857Z,79.99
2023-07-31T15:37:33.372Z,80.58
2023-07-31T15:39:34.949Z,81.31
2023-07-31T15:41:37.673Z,81.89
2023-07-31T15:43:39.109Z,80.37
2023-07-31T15:45:40.658Z,82.98
2023-07-31T15:47:42.260Z,80.30
2023-07-31T15:49:43.690Z,80.69
2023-07-31T15:51:45.483Z,81.61
2023-07-31T15:53:47.316Z,81.44
2023-07-31T15:55:48.752Z,81.77
2023-07-31T15:57:50.380Z,80.91
2023-07-31T15:59:51.960Z,81.79
2023-07-31T16:01:53.617Z,80.66
2023-07-31T16:03:55.288Z,81.38
2023-07-31T16:05:56.870Z,81.75
2023-07-31T16:07:58.396Z,81.04
2023-07-31T16:10:00.058Z,81.85
2023-07-31T16:12:01.671Z,81.81
2023-07-31T16:14:03.092Z,81.43
2023-07-31T16:16:04.954Z,81.08
2023-07-31T16:18:06.640Z,81.01
2023-07-31T16:20:08.589Z,81.98
2023-07-31T16:22:10.261Z,82.06
2023-07-31T16:24:11.717Z,81.44
2023-07-31T16:26:13.156Z,82.40
2023-07-31T16:28:14.726Z,82.74
2023-07-31T16:30:16.355Z,81.37
2023-07-31T16:32:17.971Z,81.57
2023-07-31T16:34:19.773Z,80.71
2023-07-31T16:36:21.374Z,81.22
2023-07-31T16:38:22.798Z,79.51
2023-07-31T16:40:24.352Z,78.72
2023-07-31T16:42:25.932Z,77.98
2023-07-31T16:44:27.366Z,76.66
2023-07-31T16:46:29.019Z,76.55
2023-07-31T16:48:30.536Z,77.75
2023-07-31T16:50:31.966Z,77.23
2023-07-31T16:52:33.512Z,75.43
2023-07-31T16:54:35.343Z,77.00
2023-07-31T16:56:56.956Z,76.81
2023-07-31T16:58:58.418Z,78.39
2023-07-31T17:01:00.218Z,79.07
2023-07-31T17:03:02.563Z,79.02
2023-07-31T17:05:04.545Z,79.07
2023-07-31T17:07:06.249Z,80.56
2023-07-31T17:09:07.845Z,81.41
2023-07-31T17:11:09.668Z,80.84
2023-07-31T17:13:11.220Z,80.36
2023-07-31T17:15:12.670Z,80.74
2023-07-31T17:17:14.413Z,82.04
2023-07-31T17:19:16.116Z,79.89
2023-07-31T17:21:17.534Z,79.82
2023-07-31T17:23:19.134Z,79.53
2023-07-31T17:25:20.676Z,81.29
2023-07-31T17:27:22.116Z,81.03
2023-07-31T17:29:29.604Z,80.61
2023-07-31T17:31:31.628Z,81.17
2023-07-31T17:33:33.136Z,79.77
2023-07-31T17:35:35.215Z,82.69
2023-07-31T17:37:36.707Z,82.40
2023-07-31T17:39:38.136Z,81.44
2023-07-31T17:41:39.776Z,81.83
2023-07-31T17:43:41.330Z,80.49
2023-07-31T17:45:42.758Z,82.37
2023-07-31T17:47:45.268Z,83.40
2023-07-31T17:49:47.024Z,85.95
2023-07-31T17:51:48.473Z,86.88
2023-07-31T17:53:50.080Z,86.65
2023-07-31T17:55:52.216Z,87.54
2023-07-31T17:57:53.672Z,89.53
2023-07-31T17:59:55.281Z,91.05
2023-07-31T18:01:57.057Z,91.20
2023-07-31T18:03:58.620Z,90.98
2023-07-31T18:06:00.386Z,93.31
2023-07-31T18:08:01.984Z,96.75
2023-07-31T18:10:03.587Z,94.80
2023-07-31T18:12:05.733Z,94.13
2023-07-31T18:14:08.631Z,93.44
2023-07-31T18:16:10.328Z,95.72
2023-07-31T18:18:12.085Z,95.36
2023-07-31T18:20:13.737Z,98.02
2023-07-31T18:22:15.182Z,96.65
2023-07-31T18:24:16.861Z,100.00
2023-07-31T18:26:18.387Z,97.22
2023-07-31T18:28:19.867Z,96.97
2023-07-31T18:30:21.472Z,100.00
2023-07-31T18:32:23.054Z,100.00
2023-07-31T18:34:24.493Z,100.00
2023-07-31T18:36:26.069Z,100.00
2023-07-31T18:38:27.588Z,100.00
2023-07-31T18:40:29.006Z,100.00
2023-07-31T18:42:30.471Z,100.00
2023-07-31T18:44:31.997Z,100.00
2023-07-31T18:46:33.548Z,100.00
2023-07-31T18:48:35.164Z,100.00
2023-07-31T18:50:41.697Z,100.00
2023-07-31T18:52:43.178Z,100.00
2023-07-31T18:54:44.734Z,100.00
2023-07-31T18:56:46.327Z,100.00
2023-07-31T18:58:47.982Z,100.00
2023-07-31T19:00:49.409Z,100.00
2023-07-31T19:02:50.976Z,100.00
2023-07-31T19:04:52.525Z,100.00
2023-07-31T19:06:54.221Z,100.00
2023-07-31T19:08:55.683Z,100.00
2023-07-31T19:10:57.209Z,100.00
2023-07-31T19:12:58.751Z,100.00
2023-07-31T19:15:00.328Z,100.00
2023-07-31T19:17:01.801Z,100.00
2023-07-31T19:19:03.308Z,100.00
2023-07-31T19:21:04.902Z,100.00
2023-07-31T19:23:06.316Z,100.00
2023-07-31T19:25:08.418Z,100.00
2023-07-31T19:27:09.976Z,100.00
2023-07-31T19:29:11.404Z,100.00
2023-07-31T19:31:12.843Z,100.00
2023-07-31T19:33:14.531Z,100.00
2023-07-31T19:35:16.403Z,100.00
2023-07-31T19:37:17.935Z,100.00
2023-07-31T19:39:19.523Z,100.00
2023-07-31T19:41:21.028Z,100.00
2023-07-31T19:43:22.679Z,100.00
2023-07-31T19:45:24.465Z,100.00
2023-07-31T19:47:25.993Z,100.00
2023-07-31T19:49:28.991Z,100.00
2023-07-31T19:51:30.517Z,100.00
2023-07-31T19:53:31.965Z,100.00
2023-07-31T19:55:33.571Z,100.00
2023-07-31T19:57:35.112Z,100.00
2023-07-31T19:59:36.544Z,100.00
2023-07-31T20:01:38.239Z,100.00
2023-07-31T20:03:39.824Z,100.00
2023-07-31T20:05:41.294Z,100.00
2023-07-31T20:07:42.973Z,100.00
2023-07-31T20:09:44.446Z,100.00
2023-07-31T20:11:45.864Z,100.00
2023-07-31T20:13:47.524Z,100.00
2023-07-31T20:15:49.091Z,100.00
2023-07-31T20:17:51.332Z,100.00
2023-07-31T20:19:52.973Z,100.00
2023-07-31T20:21:54.597Z,100.00
2023-07-31T20:23:56.036Z,100.00
2023-07-31T20:25:57.574Z,100.00
2023-07-31T20:27:59.331Z,100.00
2023-07-31T20:30:00.832Z,100.00
2023-07-31T20:32:02.413Z,100.00
2023-07-31T20:34:04.014Z,100.00
2023-07-31T20:36:05.557Z,100.00
2023-07-31T20:38:07.093Z,100.00
2023-07-31T20:40:09.310Z,100.00
2023-07-31T20:42:10.776Z,100.00
2023-07-31T20:44:12.406Z,100.00
2023-07-31T20:46:14.050Z,100.00
2023-07-31T20:48:15.624Z,100.00
2023-07-31T20:50:17.294Z,100.00
2023-07-31T20:52:18.809Z,100.00
2023-07-31T20:54:20.235Z,100.00
2023-07-31T20:56:21.827Z,100.00
2023-07-31T20:58:23.394Z,100.00
2023-07-31T21:00:24.970Z,100.00
2023-07-31T21:02:26.761Z,100.00
2023-07-31T21:04:28.500Z,100.00
2023-07-31T21:06:29.985Z,100.00
2023-07-31T21:08:31.626Z,100.00
2023-07-31T21:10:38.531Z,100.00
2023-07-31T21:12:40.059Z,100.00
2023-07-31T21:14:44.712Z,100.00
2023-07-31T21:16:46.270Z,100.00
2023-07-31T21:18:47.725Z,100.00
2023-07-31T21:20:49.454Z,100.00
2023-07-31T21:22:51.061Z,100.00
2023-07-31T21:24:53.160Z,100.00
2023-07-31T21:26:54.696Z,100.00
2023-07-31T21:28:56.346Z,100.00
2023-07-31T21:30:57.797Z,100.00
2023-07-31T21:32:59.290Z,100.00
2023-07-31T21:35:00.805Z,100.00
2023-07-31T21:37:02.224Z,100.00
2023-07-31T21:39:03.821Z,100.00
2023-07-31T21:41:05.465Z,99.98
2023-07-31T21:43:06.905Z,100.00
2023-07-31T21:45:08.668Z,100.00
2023-07-31T21:47:10.300Z,99.35
2023-07-31T21:49:11.800Z,99.44
2023-07-31T21:51:13.489Z,100.00
2023-07-31T21:53:14.961Z,99.57
2023-07-31T21:55:16.412Z,100.00
2023-07-31T21:57:17.942Z,99.58
2023-07-31T21:59:19.450Z,98.95
2023-07-31T22:01:20.932Z,100.00
2023-07-31T22:03:22.611Z,99.36
2023-07-31T22:05:24.172Z,97.89
2023-07-31T22:07:25.636Z,99.65
2023-07-31T22:09:27.274Z,100.00
2023-07-31T22:11:28.790Z,98.96
2023-07-31T22:13:31.422Z,98.60
2023-07-31T22:15:32.995Z,100.00
2023-07-31T22:17:34.660Z,99.03
2023-07-31T22:19:36.160Z,99.85
2023-07-31T22:21:37.793Z,98.22
2023-07-31T22:23:39.473Z,98.53
2023-07-31T22:25:40.956Z,100.00
2023-07-31T22:27:42.584Z,99.47
2023-07-31T22:29:44.330Z,99.72
2023-07-31T22:31:45.824Z,98.28
2023-07-31T22:33:47.433Z,98.34
2023-07-31T22:35:50.005Z,97.97
2023-07-31T22:37:51.436Z,98.28
2023-07-31T22:39:53.064Z,97.16
2023-07-31T22:41:54.902Z,95.75
2023-07-31T22:43:56.367Z,97.39
2023-07-31T22:45:58.038Z,97.34
2023-07-31T22:47:59.672Z,97.88
2023-07-31T22:50:01.200Z,98.00
2023-07-31T22:52:02.649Z,97.32
2023-07-31T22:54:04.143Z,97.10
2023-07-31T22:56:06.807Z,98.69
2023-07-31T22:58:08.655Z,96.88
2023-07-31T23:00:10.632Z,98.29
2023-07-31T23:02:12.131Z,96.94
2023-07-31T23:04:13.860Z,96.82
2023-07-31T23:06:15.358Z,96.17
2023-07-31T23:08:16.807Z,95.89
2023-07-31T23:10:18.551Z,95.21
2023-07-31T23:12:19.990Z,95.96
2023-07-31T23:14:21.410Z,95.08
2023-07-31T23:16:23.236Z,95.92
2023-07-31T23:18:24.757Z,95.13
2023-07-31T23:20:26.173Z,95.50
2023-07-31T23:22:27.947Z,94.98
2023-07-31T23:24:29.381Z,95.60
2023-07-31T23:26:30.848Z,96.39
2023-07-31T23:28:32.750Z,96.16
2023-07-31T23:30:34.256Z,95.97
2023-07-31T23:32:35.747Z,95.57
2023-07-31T23:34:37.721Z,94.78
2023-07-31T23:36:42.389Z,94.89
2023-07-31T23:38:44.108Z,96.18
2023-07-31T23:40:45.854Z,95.23
2023-07-31T23:42:47.304Z,95.93
2023-07-31T23:44:57.030Z,95.20
2023-07-31T23:47:10.321Z,96.02
2023-07-31T23:49:11.759Z,96.61
2023-07-31T23:51:13.303Z,96.16
2023-07-31T23:53:15.384Z,96.07
2023-07-31T23:55:17.824Z,96.96
2023-07-31T23:57:20.161Z,95.87
2023-07-31T23:59:22.048Z,96.45
